Deckerville, Michigan
Current Conditions -  °F | °C
As of 6:18 AM on Tuesday 21 Oct 2014 (Local Time) from KBAX Reporting Station
Overcast Overcast  
Wind Chill: 39°   Ceiling: 1700
Heat Index: 45°   Visibility: 10mi
Dew Point: 43°   Wind: 10mph
Humidity: 95%   Direction: 10°N
Pressure: 29.94"   Gusts: 17mph
Location:  43.53°N, 82.74°W
Report Text: KBAX 211018Z AUTO 01009G15KT 10SM OVC017 07/06 A2994 RMK AO2 T00700062
Loading
Personal Weather Stations






























Interactive Weather Map
Tropical Storm Tracking
New forecast layout! Learn more

10-Day Weather Forecast

Advertisements
Track Severe Weather on mobile